Ortonville, Minnesota
Current Conditions -  °F | °C
As of 7:34 AM on Wednesday 22 Oct 2014 (Local Time) from KVVV Reporting Station
Scattered Clouds Scattered Clouds  
Wind Chill: 42°   Ceiling: Unl
Heat Index: 48°   Visibility: 10mi
Dew Point: 41°   Wind: 15mph
Humidity: 76%   Direction: 140°SE
Pressure: 29.93"   Gusts: 20mph
Location:  45.3°N, 96.44°W
Report Text: KVVV 221234Z AUTO 14013G17KT 10SM SCT090 09/05 A2993 RMK AO2
Loading
Personal Weather Stations






























Interactive Weather Map
Tropical Storm Tracking
New forecast layout! Learn more

10-Day Weather Forecast

Advertisements
Track Severe Weather on mobile